Terminal Aerodrome Forecast
Issued by NWS Wilmington, NC

Current Version | Previous Version | Graphics & Text | Print | Product List | Glossary Off
Versions: 1 2 3 4 5 6 7 8 9 10 11 12 13 14 15 16 17 18 19 20 21 22 23

482
FTUS42 KILM 251720
TAFFLO
TAF
KFLO 251720Z 2518/2618 24015G24KT P6SM BKN050
     FM252300 29004KT P6SM VCSH BKN045
     FM260800 31004KT 2SM -RA BR OVC008
     FM261500 36004KT 5SM -RA OVC010=

USA.gov is the U.S. government's official web portal to all federal, state and local government web resources and services.